sensor_id;sensor_type;location;lat;lon;timestamp;P1;durP1;ratioP1;P2;durP2;ratioP2
71639;SDS011;60912;48.968;10.124;2023-12-20T00:01:31;3.92;;;2.00;;
71639;SDS011;60912;48.968;10.124;2023-12-20T00:03:57;3.53;;;2.00;;
71639;SDS011;60912;48.968;10.124;2023-12-20T00:06:22;3.37;;;1.70;;
71639;SDS011;60912;48.968;10.124;2023-12-20T00:08:47;3.55;;;1.98;;
71639;SDS011;60912;48.968;10.124;2023-12-20T00:11:13;4.10;;;2.10;;
71639;SDS011;60912;48.968;10.124;2023-12-20T00:13:38;3.40;;;1.90;;
71639;SDS011;60912;48.968;10.124;2023-12-20T00:16:03;3.47;;;1.70;;
71639;SDS011;60912;48.968;10.124;2023-12-20T00:18:29;3.83;;;1.80;;
71639;SDS011;60912;48.968;10.124;2023-12-20T00:20:54;3.40;;;1.80;;
71639;SDS011;60912;48.968;10.124;2023-12-20T00:23:19;4.10;;;2.00;;
71639;SDS011;60912;48.968;10.124;2023-12-20T00:25:45;3.35;;;1.70;;
71639;SDS011;60912;48.968;10.124;2023-12-20T00:28:10;6.23;;;1.80;;
71639;SDS011;60912;48.968;10.124;2023-12-20T00:30:35;3.40;;;1.73;;
71639;SDS011;60912;48.968;10.124;2023-12-20T00:33:01;3.30;;;1.60;;
71639;SDS011;60912;48.968;10.124;2023-12-20T00:35:27;3.53;;;1.67;;
71639;SDS011;60912;48.968;10.124;2023-12-20T00:37:52;4.20;;;1.57;;
71639;SDS011;60912;48.968;10.124;2023-12-20T00:40:18;3.73;;;1.50;;
71639;SDS011;60912;48.968;10.124;2023-12-20T00:42:43;5.07;;;1.60;;
71639;SDS011;60912;48.968;10.124;2023-12-20T00:45:09;3.83;;;1.50;;
71639;SDS011;60912;48.968;10.124;2023-12-20T00:47:34;3.13;;;1.70;;
71639;SDS011;60912;48.968;10.124;2023-12-20T00:49:59;3.70;;;1.60;;
71639;SDS011;60912;48.968;10.124;2023-12-20T00:52:25;5.47;;;1.87;;
71639;SDS011;60912;48.968;10.124;2023-12-20T00:54:50;3.75;;;1.63;;
71639;SDS011;60912;48.968;10.124;2023-12-20T00:57:16;4.80;;;1.70;;
71639;SDS011;60912;48.968;10.124;2023-12-20T00:59:41;3.40;;;1.70;;
71639;SDS011;60912;48.968;10.124;2023-12-20T01:02:07;4.13;;;1.60;;
71639;SDS011;60912;48.968;10.124;2023-12-20T01:04:32;5.03;;;2.10;;
71639;SDS011;60912;48.968;10.124;2023-12-20T01:06:57;3.30;;;1.70;;
71639;SDS011;60912;48.968;10.124;2023-12-20T01:09:23;3.97;;;1.60;;
71639;SDS011;60912;48.968;10.124;2023-12-20T01:11:51;2.80;;;1.40;;
71639;SDS011;60912;48.968;10.124;2023-12-20T01:14:17;3.10;;;1.50;;
71639;SDS011;60912;48.968;10.124;2023-12-20T01:16:42;4.47;;;1.80;;
71639;SDS011;60912;48.968;10.124;2023-12-20T01:19:08;3.17;;;1.50;;
71639;SDS011;60912;48.968;10.124;2023-12-20T01:21:33;3.23;;;1.47;;
71639;SDS011;60912;48.968;10.124;2023-12-20T01:23:58;3.60;;;1.83;;
71639;SDS011;60912;48.968;10.124;2023-12-20T01:26:23;3.90;;;1.70;;
71639;SDS011;60912;48.968;10.124;2023-12-20T01:28:49;4.70;;;1.60;;
71639;SDS011;60912;48.968;10.124;2023-12-20T01:31:14;3.27;;;1.57;;
71639;SDS011;60912;48.968;10.124;2023-12-20T01:33:39;4.47;;;1.70;;
71639;SDS011;60912;48.968;10.124;2023-12-20T01:36:05;4.67;;;1.67;;
71639;SDS011;60912;48.968;10.124;2023-12-20T01:38:30;4.13;;;1.70;;
71639;SDS011;60912;48.968;10.124;2023-12-20T01:40:56;3.13;;;1.50;;
71639;SDS011;60912;48.968;10.124;2023-12-20T01:43:21;3.53;;;1.30;;
71639;SDS011;60912;48.968;10.124;2023-12-20T01:45:46;3.67;;;1.60;;
71639;SDS011;60912;48.968;10.124;2023-12-20T01:48:12;3.23;;;1.50;;
71639;SDS011;60912;48.968;10.124;2023-12-20T01:50:39;3.10;;;1.70;;
71639;SDS011;60912;48.968;10.124;2023-12-20T01:53:05;3.88;;;1.70;;
71639;SDS011;60912;48.968;10.124;2023-12-20T01:55:34;3.97;;;1.70;;
71639;SDS011;60912;48.968;10.124;2023-12-20T01:58:00;3.55;;;1.80;;
71639;SDS011;60912;48.968;10.124;2023-12-20T02:00:29;3.00;;;1.50;;
71639;SDS011;60912;48.968;10.124;2023-12-20T02:02:55;3.60;;;1.63;;
71639;SDS011;60912;48.968;10.124;2023-12-20T02:05:20;3.37;;;1.53;;
71639;SDS011;60912;48.968;10.124;2023-12-20T02:07:47;3.50;;;1.70;;
71639;SDS011;60912;48.968;10.124;2023-12-20T02:10:12;3.40;;;1.50;;
71639;SDS011;60912;48.968;10.124;2023-12-20T02:12:38;4.18;;;2.20;;
71639;SDS011;60912;48.968;10.124;2023-12-20T02:15:03;4.30;;;2.03;;
71639;SDS011;60912;48.968;10.124;2023-12-20T02:17:30;4.60;;;1.65;;
71639;SDS011;60912;48.968;10.124;2023-12-20T02:19:57;5.27;;;1.57;;
71639;SDS011;60912;48.968;10.124;2023-12-20T02:22:22;3.10;;;1.53;;
71639;SDS011;60912;48.968;10.124;2023-12-20T02:24:47;3.43;;;1.60;;
71639;SDS011;60912;48.968;10.124;2023-12-20T02:27:13;2.73;;;1.43;;
71639;SDS011;60912;48.968;10.124;2023-12-20T02:29:40;4.53;;;1.67;;
71639;SDS011;60912;48.968;10.124;2023-12-20T02:32:05;2.47;;;1.20;;
71639;SDS011;60912;48.968;10.124;2023-12-20T02:34:31;2.70;;;1.40;;
71639;SDS011;60912;48.968;10.124;2023-12-20T02:36:56;3.33;;;1.20;;
71639;SDS011;60912;48.968;10.124;2023-12-20T02:39:22;3.17;;;1.10;;
71639;SDS011;60912;48.968;10.124;2023-12-20T02:41:47;2.30;;;1.10;;
71639;SDS011;60912;48.968;10.124;2023-12-20T02:44:13;3.45;;;1.27;;
71639;SDS011;60912;48.968;10.124;2023-12-20T02:46:39;2.80;;;1.07;;
71639;SDS011;60912;48.968;10.124;2023-12-20T02:49:04;2.77;;;1.10;;
71639;SDS011;60912;48.968;10.124;2023-12-20T02:51:30;2.42;;;1.15;;
71639;SDS011;60912;48.968;10.124;2023-12-20T02:53:56;2.67;;;1.10;;
71639;SDS011;60912;48.968;10.124;2023-12-20T02:56:21;2.40;;;1.10;;
71639;SDS011;60912;48.968;10.124;2023-12-20T02:58:46;2.47;;;1.10;;
71639;SDS011;60912;48.968;10.124;2023-12-20T03:01:12;2.40;;;1.10;;
71639;SDS011;60912;48.968;10.124;2023-12-20T03:03:37;2.70;;;1.20;;
71639;SDS011;60912;48.968;10.124;2023-12-20T03:06:02;2.37;;;1.13;;
71639;SDS011;60912;48.968;10.124;2023-12-20T03:08:28;5.07;;;1.10;;
71639;SDS011;60912;48.968;10.124;2023-12-20T03:10:53;3.23;;;1.13;;
71639;SDS011;60912;48.968;10.124;2023-12-20T03:13:19;2.50;;;1.00;;
71639;SDS011;60912;48.968;10.124;2023-12-20T03:15:45;2.90;;;1.02;;
71639;SDS011;60912;48.968;10.124;2023-12-20T03:18:10;2.07;;;0.93;;
71639;SDS011;60912;48.968;10.124;2023-12-20T03:20:36;1.80;;;0.80;;
71639;SDS011;60912;48.968;10.124;2023-12-20T03:23:01;1.83;;;0.80;;
71639;SDS011;60912;48.968;10.124;2023-12-20T03:25:26;1.53;;;0.70;;
71639;SDS011;60912;48.968;10.124;2023-12-20T03:27:52;2.10;;;0.90;;
71639;SDS011;60912;48.968;10.124;2023-12-20T03:30:18;1.80;;;0.73;;
71639;SDS011;60912;48.968;10.124;2023-12-20T03:32:43;1.73;;;0.70;;
71639;SDS011;60912;48.968;10.124;2023-12-20T03:35:09;3.43;;;0.80;;
71639;SDS011;60912;48.968;10.124;2023-12-20T03:37:34;1.90;;;0.80;;
71639;SDS011;60912;48.968;10.124;2023-12-20T03:40:00;1.80;;;0.60;;
71639;SDS011;60912;48.968;10.124;2023-12-20T03:42:25;2.53;;;0.70;;
71639;SDS011;60912;48.968;10.124;2023-12-20T03:44:50;1.87;;;0.80;;
71639;SDS011;60912;48.968;10.124;2023-12-20T03:47:16;1.90;;;0.60;;
71639;SDS011;60912;48.968;10.124;2023-12-20T03:49:41;1.80;;;0.70;;
71639;SDS011;60912;48.968;10.124;2023-12-20T03:52:06;1.30;;;0.50;;
71639;SDS011;60912;48.968;10.124;2023-12-20T03:54:32;2.00;;;0.70;;
71639;SDS011;60912;48.968;10.124;2023-12-20T03:56:58;1.80;;;0.70;;
71639;SDS011;60912;48.968;10.124;2023-12-20T03:59:23;1.60;;;0.60;;
71639;SDS011;60912;48.968;10.124;2023-12-20T04:01:49;1.50;;;0.60;;
71639;SDS011;60912;48.968;10.124;2023-12-20T04:04:14;1.23;;;0.60;;
71639;SDS011;60912;48.968;10.124;2023-12-20T04:06:39;1.50;;;0.60;;
71639;SDS011;60912;48.968;10.124;2023-12-20T04:09:05;1.37;;;0.60;;
71639;SDS011;60912;48.968;10.124;2023-12-20T04:11:30;1.47;;;0.50;;
71639;SDS011;60912;48.968;10.124;2023-12-20T04:13:55;1.63;;;0.60;;
71639;SDS011;60912;48.968;10.124;2023-12-20T04:16:21;1.50;;;0.60;;
71639;SDS011;60912;48.968;10.124;2023-12-20T04:18:46;0.70;;;0.40;;
71639;SDS011;60912;48.968;10.124;2023-12-20T04:21:11;0.93;;;0.40;;
71639;SDS011;60912;48.968;10.124;2023-12-20T04:23:37;1.00;;;0.40;;
71639;SDS011;60912;48.968;10.124;2023-12-20T04:26:02;1.42;;;0.35;;
71639;SDS011;60912;48.968;10.124;2023-12-20T04:28:27;1.80;;;0.50;;
71639;SDS011;60912;48.968;10.124;2023-12-20T04:30:55;1.60;;;0.52;;
71639;SDS011;60912;48.968;10.124;2023-12-20T04:33:20;0.80;;;0.40;;
71639;SDS011;60912;48.968;10.124;2023-12-20T04:35:46;0.97;;;0.40;;
71639;SDS011;60912;48.968;10.124;2023-12-20T04:38:11;1.38;;;0.40;;
71639;SDS011;60912;48.968;10.124;2023-12-20T04:40:37;0.50;;;0.30;;
71639;SDS011;60912;48.968;10.124;2023-12-20T04:43:02;4.50;;;1.17;;
71639;SDS011;60912;48.968;10.124;2023-12-20T04:45:28;0.88;;;0.40;;
71639;SDS011;60912;48.968;10.124;2023-12-20T04:47:53;1.47;;;0.47;;
71639;SDS011;60912;48.968;10.124;2023-12-20T04:50:18;0.93;;;0.40;;
71639;SDS011;60912;48.968;10.124;2023-12-20T04:52:44;1.30;;;0.50;;
71639;SDS011;60912;48.968;10.124;2023-12-20T04:55:10;2.20;;;0.50;;
71639;SDS011;60912;48.968;10.124;2023-12-20T04:57:35;0.90;;;0.40;;
71639;SDS011;60912;48.968;10.124;2023-12-20T05:00:01;1.40;;;0.50;;
71639;SDS011;60912;48.968;10.124;2023-12-20T05:02:26;1.50;;;0.40;;
71639;SDS011;60912;48.968;10.124;2023-12-20T05:04:51;0.60;;;0.35;;
71639;SDS011;60912;48.968;10.124;2023-12-20T05:07:17;0.87;;;0.30;;
71639;SDS011;60912;48.968;10.124;2023-12-20T05:09:42;1.17;;;0.40;;
71639;SDS011;60912;48.968;10.124;2023-12-20T05:12:07;2.37;;;0.50;;
71639;SDS011;60912;48.968;10.124;2023-12-20T05:14:33;1.00;;;0.40;;
71639;SDS011;60912;48.968;10.124;2023-12-20T05:16:58;0.95;;;0.45;;
71639;SDS011;60912;48.968;10.124;2023-12-20T05:19:24;1.10;;;0.40;;
71639;SDS011;60912;48.968;10.124;2023-12-20T05:21:49;0.93;;;0.40;;
71639;SDS011;60912;48.968;10.124;2023-12-20T05:24:15;0.63;;;0.40;;
71639;SDS011;60912;48.968;10.124;2023-12-20T05:26:40;0.90;;;0.40;;
71639;SDS011;60912;48.968;10.124;2023-12-20T05:29:05;0.80;;;0.40;;
71639;SDS011;60912;48.968;10.124;2023-12-20T05:31:31;1.00;;;0.50;;
71639;SDS011;60912;48.968;10.124;2023-12-20T05:33:56;1.13;;;0.40;;
71639;SDS011;60912;48.968;10.124;2023-12-20T05:36:22;1.70;;;0.50;;
71639;SDS011;60912;48.968;10.124;2023-12-20T05:38:47;1.17;;;0.40;;
71639;SDS011;60912;48.968;10.124;2023-12-20T05:41:13;2.07;;;0.73;;
71639;SDS011;60912;48.968;10.124;2023-12-20T05:43:38;1.00;;;0.40;;
71639;SDS011;60912;48.968;10.124;2023-12-20T05:46:04;2.00;;;0.50;;
71639;SDS011;60912;48.968;10.124;2023-12-20T05:48:29;1.20;;;0.50;;
71639;SDS011;60912;48.968;10.124;2023-12-20T05:50:54;1.00;;;0.50;;
71639;SDS011;60912;48.968;10.124;2023-12-20T05:53:20;1.27;;;0.40;;
71639;SDS011;60912;48.968;10.124;2023-12-20T05:55:45;1.50;;;0.50;;
71639;SDS011;60912;48.968;10.124;2023-12-20T05:58:11;0.73;;;0.40;;
71639;SDS011;60912;48.968;10.124;2023-12-20T06:00:36;1.53;;;0.50;;
71639;SDS011;60912;48.968;10.124;2023-12-20T06:03:01;1.10;;;0.50;;
71639;SDS011;60912;48.968;10.124;2023-12-20T06:05:27;1.23;;;0.50;;
71639;SDS011;60912;48.968;10.124;2023-12-20T06:07:52;1.27;;;0.60;;
71639;SDS011;60912;48.968;10.124;2023-12-20T06:10:18;1.13;;;0.50;;
71639;SDS011;60912;48.968;10.124;2023-12-20T06:12:43;1.20;;;0.60;;
71639;SDS011;60912;48.968;10.124;2023-12-20T06:15:08;3.03;;;0.80;;
71639;SDS011;60912;48.968;10.124;2023-12-20T06:17:34;2.78;;;0.57;;
71639;SDS011;60912;48.968;10.124;2023-12-20T06:20:00;1.30;;;0.50;;
71639;SDS011;60912;48.968;10.124;2023-12-20T06:22:26;3.28;;;0.80;;
71639;SDS011;60912;48.968;10.124;2023-12-20T06:24:51;1.87;;;0.73;;
71639;SDS011;60912;48.968;10.124;2023-12-20T06:27:16;1.50;;;0.60;;
71639;SDS011;60912;48.968;10.124;2023-12-20T06:29:42;1.20;;;0.67;;
71639;SDS011;60912;48.968;10.124;2023-12-20T06:32:09;2.10;;;0.70;;
71639;SDS011;60912;48.968;10.124;2023-12-20T06:34:34;1.58;;;0.60;;
71639;SDS011;60912;48.968;10.124;2023-12-20T06:37:00;1.40;;;0.70;;
71639;SDS011;60912;48.968;10.124;2023-12-20T06:39:25;1.63;;;0.70;;
71639;SDS011;60912;48.968;10.124;2023-12-20T06:41:51;1.67;;;0.80;;
71639;SDS011;60912;48.968;10.124;2023-12-20T06:44:16;2.50;;;0.88;;
71639;SDS011;60912;48.968;10.124;2023-12-20T06:46:43;1.67;;;0.70;;
71639;SDS011;60912;48.968;10.124;2023-12-20T06:49:09;4.27;;;1.20;;
71639;SDS011;60912;48.968;10.124;2023-12-20T06:51:34;2.15;;;0.90;;
71639;SDS011;60912;48.968;10.124;2023-12-20T06:54:00;2.70;;;1.03;;
71639;SDS011;60912;48.968;10.124;2023-12-20T06:56:27;1.97;;;0.90;;
71639;SDS011;60912;48.968;10.124;2023-12-20T06:58:52;1.90;;;0.80;;
71639;SDS011;60912;48.968;10.124;2023-12-20T07:01:18;1.90;;;0.90;;
71639;SDS011;60912;48.968;10.124;2023-12-20T07:03:43;3.03;;;0.80;;
71639;SDS011;60912;48.968;10.124;2023-12-20T07:06:08;2.73;;;1.03;;
71639;SDS011;60912;48.968;10.124;2023-12-20T07:08:34;1.87;;;0.87;;
71639;SDS011;60912;48.968;10.124;2023-12-20T07:10:59;2.43;;;0.90;;
71639;SDS011;60912;48.968;10.124;2023-12-20T07:13:24;2.50;;;1.03;;
71639;SDS011;60912;48.968;10.124;2023-12-20T07:15:50;1.80;;;0.70;;
71639;SDS011;60912;48.968;10.124;2023-12-20T07:18:15;1.50;;;0.65;;
71639;SDS011;60912;48.968;10.124;2023-12-20T07:20:41;1.43;;;0.70;;
71639;SDS011;60912;48.968;10.124;2023-12-20T07:23:06;1.70;;;0.70;;
71639;SDS011;60912;48.968;10.124;2023-12-20T07:25:31;2.60;;;0.67;;
71639;SDS011;60912;48.968;10.124;2023-12-20T07:27:57;1.45;;;0.60;;
71639;SDS011;60912;48.968;10.124;2023-12-20T07:30:23;1.25;;;0.60;;
71639;SDS011;60912;48.968;10.124;2023-12-20T07:32:49;1.20;;;0.60;;
71639;SDS011;60912;48.968;10.124;2023-12-20T07:35:15;2.23;;;0.70;;
71639;SDS011;60912;48.968;10.124;2023-12-20T07:37:44;1.60;;;0.77;;
71639;SDS011;60912;48.968;10.124;2023-12-20T07:40:10;2.13;;;0.83;;
71639;SDS011;60912;48.968;10.124;2023-12-20T07:42:35;3.00;;;0.93;;
71639;SDS011;60912;48.968;10.124;2023-12-20T07:45:01;1.73;;;0.65;;
71639;SDS011;60912;48.968;10.124;2023-12-20T07:47:26;1.80;;;0.80;;
71639;SDS011;60912;48.968;10.124;2023-12-20T07:49:52;1.90;;;0.80;;
71639;SDS011;60912;48.968;10.124;2023-12-20T07:52:17;2.30;;;1.10;;
71639;SDS011;60912;48.968;10.124;2023-12-20T07:54:44;2.40;;;1.20;;
71639;SDS011;60912;48.968;10.124;2023-12-20T07:57:10;2.25;;;1.20;;
71639;SDS011;60912;48.968;10.124;2023-12-20T07:59:36;3.80;;;1.42;;
71639;SDS011;60912;48.968;10.124;2023-12-20T08:02:01;2.00;;;1.13;;
71639;SDS011;60912;48.968;10.124;2023-12-20T08:04:26;2.47;;;1.40;;
71639;SDS011;60912;48.968;10.124;2023-12-20T08:06:52;2.97;;;1.40;;
71639;SDS011;60912;48.968;10.124;2023-12-20T08:09:18;4.10;;;1.60;;
71639;SDS011;60912;48.968;10.124;2023-12-20T08:11:45;2.72;;;1.55;;
71639;SDS011;60912;48.968;10.124;2023-12-20T08:14:13;3.00;;;1.60;;
71639;SDS011;60912;48.968;10.124;2023-12-20T08:16:39;2.90;;;1.60;;
71639;SDS011;60912;48.968;10.124;2023-12-20T08:19:04;5.63;;;1.85;;
71639;SDS011;60912;48.968;10.124;2023-12-20T08:21:29;3.03;;;1.73;;
71639;SDS011;60912;48.968;10.124;2023-12-20T08:23:55;4.27;;;1.50;;
71639;SDS011;60912;48.968;10.124;2023-12-20T08:26:20;3.00;;;1.40;;
71639;SDS011;60912;48.968;10.124;2023-12-20T08:28:49;4.05;;;1.50;;
71639;SDS011;60912;48.968;10.124;2023-12-20T08:31:15;2.40;;;1.20;;
71639;SDS011;60912;48.968;10.124;2023-12-20T08:36:11;3.78;;;1.17;;
71639;SDS011;60912;48.968;10.124;2023-12-20T08:38:37;2.40;;;1.40;;
71639;SDS011;60912;48.968;10.124;2023-12-20T08:41:02;3.33;;;1.67;;
71639;SDS011;60912;48.968;10.124;2023-12-20T08:43:30;2.88;;;1.60;;
71639;SDS011;60912;48.968;10.124;2023-12-20T08:45:59;3.38;;;1.80;;
71639;SDS011;60912;48.968;10.124;2023-12-20T08:48:24;3.70;;;1.80;;
71639;SDS011;60912;48.968;10.124;2023-12-20T08:50:50;3.70;;;1.92;;
71639;SDS011;60912;48.968;10.124;2023-12-20T08:53:17;7.07;;;2.20;;
71639;SDS011;60912;48.968;10.124;2023-12-20T08:55:43;3.70;;;2.20;;
71639;SDS011;60912;48.968;10.124;2023-12-20T08:58:08;4.40;;;2.10;;
71639;SDS011;60912;48.968;10.124;2023-12-20T09:00:34;3.83;;;1.80;;
71639;SDS011;60912;48.968;10.124;2023-12-20T09:03:00;4.10;;;1.70;;
71639;SDS011;60912;48.968;10.124;2023-12-20T09:05:26;4.00;;;1.80;;
71639;SDS011;60912;48.968;10.124;2023-12-20T09:07:52;4.00;;;1.92;;
71639;SDS011;60912;48.968;10.124;2023-12-20T09:10:17;3.83;;;1.80;;
71639;SDS011;60912;48.968;10.124;2023-12-20T09:12:47;3.13;;;1.83;;
71639;SDS011;60912;48.968;10.124;2023-12-20T09:15:13;3.80;;;1.77;;
71639;SDS011;60912;48.968;10.124;2023-12-20T09:17:38;3.40;;;2.00;;
71639;SDS011;60912;48.968;10.124;2023-12-20T09:20:05;4.10;;;2.45;;
71639;SDS011;60912;48.968;10.124;2023-12-20T09:22:33;3.80;;;2.00;;
71639;SDS011;60912;48.968;10.124;2023-12-20T09:24:58;5.65;;;2.05;;
71639;SDS011;60912;48.968;10.124;2023-12-20T09:27:24;3.23;;;1.70;;
71639;SDS011;60912;48.968;10.124;2023-12-20T09:29:49;5.50;;;2.07;;
71639;SDS011;60912;48.968;10.124;2023-12-20T09:32:15;4.60;;;1.88;;
71639;SDS011;60912;48.968;10.124;2023-12-20T09:34:40;3.80;;;2.00;;
71639;SDS011;60912;48.968;10.124;2023-12-20T09:37:06;6.10;;;1.80;;
71639;SDS011;60912;48.968;10.124;2023-12-20T09:39:32;3.93;;;1.87;;
71639;SDS011;60912;48.968;10.124;2023-12-20T09:42:02;3.40;;;1.80;;
71639;SDS011;60912;48.968;10.124;2023-12-20T09:44:31;4.53;;;2.20;;
71639;SDS011;60912;48.968;10.124;2023-12-20T09:46:57;4.85;;;1.60;;
71639;SDS011;60912;48.968;10.124;2023-12-20T09:49:23;4.10;;;1.90;;
71639;SDS011;60912;48.968;10.124;2023-12-20T09:51:51;2.97;;;1.60;;
71639;SDS011;60912;48.968;10.124;2023-12-20T09:54:17;3.53;;;1.98;;
71639;SDS011;60912;48.968;10.124;2023-12-20T09:56:43;3.17;;;1.60;;
71639;SDS011;60912;48.968;10.124;2023-12-20T09:59:09;5.13;;;1.70;;
71639;SDS011;60912;48.968;10.124;2023-12-20T10:01:35;2.50;;;1.30;;
71639;SDS011;60912;48.968;10.124;2023-12-20T10:04:01;3.47;;;1.60;;
71639;SDS011;60912;48.968;10.124;2023-12-20T10:06:33;3.45;;;1.70;;
71639;SDS011;60912;48.968;10.124;2023-12-20T10:08:58;3.60;;;1.83;;
71639;SDS011;60912;48.968;10.124;2023-12-20T10:11:24;3.60;;;2.00;;
71639;SDS011;60912;48.968;10.124;2023-12-20T10:13:50;3.70;;;2.03;;
71639;SDS011;60912;48.968;10.124;2023-12-20T10:16:15;4.67;;;1.80;;
71639;SDS011;60912;48.968;10.124;2023-12-20T10:18:40;4.33;;;1.63;;
71639;SDS011;60912;48.968;10.124;2023-12-20T10:21:06;5.77;;;2.20;;
71639;SDS011;60912;48.968;10.124;2023-12-20T10:23:35;3.80;;;1.52;;
71639;SDS011;60912;48.968;10.124;2023-12-20T10:26:00;5.13;;;1.70;;
71639;SDS011;60912;48.968;10.124;2023-12-20T10:28:26;4.82;;;2.00;;
71639;SDS011;60912;48.968;10.124;2023-12-20T10:30:54;5.35;;;1.63;;
71639;SDS011;60912;48.968;10.124;2023-12-20T10:33:24;3.27;;;1.50;;
71639;SDS011;60912;48.968;10.124;2023-12-20T10:35:54;2.85;;;1.42;;
71639;SDS011;60912;48.968;10.124;2023-12-20T10:38:20;5.38;;;2.00;;
71639;SDS011;60912;48.968;10.124;2023-12-20T10:40:46;4.13;;;1.60;;
71639;SDS011;60912;48.968;10.124;2023-12-20T10:43:11;5.05;;;1.58;;
71639;SDS011;60912;48.968;10.124;2023-12-20T10:45:38;3.58;;;1.70;;
71639;SDS011;60912;48.968;10.124;2023-12-20T10:48:03;5.47;;;1.73;;
71639;SDS011;60912;48.968;10.124;2023-12-20T10:50:30;3.47;;;1.60;;
71639;SDS011;60912;48.968;10.124;2023-12-20T10:52:56;5.07;;;1.60;;
71639;SDS011;60912;48.968;10.124;2023-12-20T10:55:22;5.43;;;1.60;;
71639;SDS011;60912;48.968;10.124;2023-12-20T10:57:49;6.93;;;1.55;;
71639;SDS011;60912;48.968;10.124;2023-12-20T11:00:18;4.97;;;1.60;;
71639;SDS011;60912;48.968;10.124;2023-12-20T11:02:44;6.13;;;1.93;;
71639;SDS011;60912;48.968;10.124;2023-12-20T11:08:33;5.47;;;1.88;;
71639;SDS011;60912;48.968;10.124;2023-12-20T11:11:09;6.70;;;1.60;;
71639;SDS011;60912;48.968;10.124;2023-12-20T11:13:40;3.90;;;1.60;;
71639;SDS011;60912;48.968;10.124;2023-12-20T11:16:09;4.80;;;1.70;;
71639;SDS011;60912;48.968;10.124;2023-12-20T11:18:35;3.97;;;1.40;;
71639;SDS011;60912;48.968;10.124;2023-12-20T11:21:06;4.23;;;1.50;;
71639;SDS011;60912;48.968;10.124;2023-12-20T11:23:32;5.55;;;1.60;;
71639;SDS011;60912;48.968;10.124;2023-12-20T11:26:01;4.63;;;1.63;;
71639;SDS011;60912;48.968;10.124;2023-12-20T11:28:27;4.82;;;1.60;;
71639;SDS011;60912;48.968;10.124;2023-12-20T11:30:55;5.85;;;1.55;;
71639;SDS011;60912;48.968;10.124;2023-12-20T11:33:26;7.55;;;1.63;;
71639;SDS011;60912;48.968;10.124;2023-12-20T11:35:55;3.55;;;1.30;;
71639;SDS011;60912;48.968;10.124;2023-12-20T11:38:22;4.43;;;1.33;;
71639;SDS011;60912;48.968;10.124;2023-12-20T11:40:48;5.50;;;1.80;;
71639;SDS011;60912;48.968;10.124;2023-12-20T11:43:34;5.70;;;1.50;;
71639;SDS011;60912;48.968;10.124;2023-12-20T11:46:04;8.52;;;2.08;;
71639;SDS011;60912;48.968;10.124;2023-12-20T11:48:31;4.60;;;1.33;;
71639;SDS011;60912;48.968;10.124;2023-12-20T11:50:57;5.18;;;1.40;;
71639;SDS011;60912;48.968;10.124;2023-12-20T11:53:22;5.23;;;1.40;;
71639;SDS011;60912;48.968;10.124;2023-12-20T11:55:48;5.38;;;1.60;;
71639;SDS011;60912;48.968;10.124;2023-12-20T11:58:14;6.90;;;1.80;;
71639;SDS011;60912;48.968;10.124;2023-12-20T12:00:41;4.75;;;1.45;;
71639;SDS011;60912;48.968;10.124;2023-12-20T12:03:07;7.40;;;2.10;;
71639;SDS011;60912;48.968;10.124;2023-12-20T12:05:33;7.23;;;1.67;;
71639;SDS011;60912;48.968;10.124;2023-12-20T12:07:58;7.20;;;2.20;;
71639;SDS011;60912;48.968;10.124;2023-12-20T12:10:24;7.22;;;1.70;;
71639;SDS011;60912;48.968;10.124;2023-12-20T12:12:49;6.37;;;2.00;;
71639;SDS011;60912;48.968;10.124;2023-12-20T12:15:15;5.77;;;1.53;;
71639;SDS011;60912;48.968;10.124;2023-12-20T12:17:40;6.18;;;1.52;;
71639;SDS011;60912;48.968;10.124;2023-12-20T12:20:06;8.07;;;1.50;;
71639;SDS011;60912;48.968;10.124;2023-12-20T12:22:33;5.57;;;1.20;;
71639;SDS011;60912;48.968;10.124;2023-12-20T12:24:59;5.53;;;1.40;;
71639;SDS011;60912;48.968;10.124;2023-12-20T12:27:35;7.38;;;1.55;;
71639;SDS011;60912;48.968;10.124;2023-12-20T12:30:03;5.00;;;1.13;;
71639;SDS011;60912;48.968;10.124;2023-12-20T12:32:32;6.28;;;1.30;;
71639;SDS011;60912;48.968;10.124;2023-12-20T12:34:57;4.53;;;1.10;;
71639;SDS011;60912;48.968;10.124;2023-12-20T12:37:23;9.33;;;1.57;;
71639;SDS011;60912;48.968;10.124;2023-12-20T12:39:54;7.47;;;1.35;;
71639;SDS011;60912;48.968;10.124;2023-12-20T12:42:20;6.18;;;1.25;;
71639;SDS011;60912;48.968;10.124;2023-12-20T12:44:46;5.35;;;1.17;;
71639;SDS011;60912;48.968;10.124;2023-12-20T12:47:12;5.57;;;1.40;;
71639;SDS011;60912;48.968;10.124;2023-12-20T12:49:37;5.07;;;1.30;;
71639;SDS011;60912;48.968;10.124;2023-12-20T12:52:04;5.15;;;1.50;;
71639;SDS011;60912;48.968;10.124;2023-12-20T12:54:30;6.17;;;1.70;;
71639;SDS011;60912;48.968;10.124;2023-12-20T12:56:55;7.78;;;1.80;;
71639;SDS011;60912;48.968;10.124;2023-12-20T12:59:20;6.70;;;1.53;;
71639;SDS011;60912;48.968;10.124;2023-12-20T13:01:46;6.03;;;1.40;;
71639;SDS011;60912;48.968;10.124;2023-12-20T13:04:11;4.17;;;1.10;;
71639;SDS011;60912;48.968;10.124;2023-12-20T13:06:37;6.00;;;1.07;;
71639;SDS011;60912;48.968;10.124;2023-12-20T13:09:03;4.63;;;1.23;;
71639;SDS011;60912;48.968;10.124;2023-12-20T13:11:29;7.07;;;1.30;;
71639;SDS011;60912;48.968;10.124;2023-12-20T13:13:56;4.87;;;1.30;;
71639;SDS011;60912;48.968;10.124;2023-12-20T13:16:22;4.40;;;1.23;;
71639;SDS011;60912;48.968;10.124;2023-12-20T13:18:48;7.05;;;1.42;;
71639;SDS011;60912;48.968;10.124;2023-12-20T13:21:13;7.50;;;1.53;;
71639;SDS011;60912;48.968;10.124;2023-12-20T13:23:39;9.23;;;1.80;;
71639;SDS011;60912;48.968;10.124;2023-12-20T13:26:04;11.00;;;1.70;;
71639;SDS011;60912;48.968;10.124;2023-12-20T13:28:29;6.07;;;1.30;;
71639;SDS011;60912;48.968;10.124;2023-12-20T13:30:55;7.07;;;1.93;;
71639;SDS011;60912;48.968;10.124;2023-12-20T13:33:20;10.33;;;2.33;;
71639;SDS011;60912;48.968;10.124;2023-12-20T13:35:46;9.65;;;3.22;;
71639;SDS011;60912;48.968;10.124;2023-12-20T13:38:12;6.47;;;1.73;;
71639;SDS011;60912;48.968;10.124;2023-12-20T13:40:38;11.15;;;3.10;;
71639;SDS011;60912;48.968;10.124;2023-12-20T13:43:03;10.90;;;2.70;;
71639;SDS011;60912;48.968;10.124;2023-12-20T13:45:29;10.60;;;2.97;;
71639;SDS011;60912;48.968;10.124;2023-12-20T13:47:54;6.17;;;1.90;;
71639;SDS011;60912;48.968;10.124;2023-12-20T13:50:19;5.68;;;1.50;;
71639;SDS011;60912;48.968;10.124;2023-12-20T13:52:45;5.53;;;1.30;;
71639;SDS011;60912;48.968;10.124;2023-12-20T13:55:11;3.80;;;1.20;;
71639;SDS011;60912;48.968;10.124;2023-12-20T13:57:37;9.33;;;2.20;;
71639;SDS011;60912;48.968;10.124;2023-12-20T14:00:06;10.52;;;2.47;;
71639;SDS011;60912;48.968;10.124;2023-12-20T14:02:39;12.25;;;2.20;;
71639;SDS011;60912;48.968;10.124;2023-12-20T14:05:06;8.27;;;1.60;;
71639;SDS011;60912;48.968;10.124;2023-12-20T14:07:31;6.90;;;1.50;;
71639;SDS011;60912;48.968;10.124;2023-12-20T14:09:57;7.57;;;1.80;;
71639;SDS011;60912;48.968;10.124;2023-12-20T14:12:24;10.48;;;1.83;;
71639;SDS011;60912;48.968;10.124;2023-12-20T14:14:49;6.43;;;1.60;;
71639;SDS011;60912;48.968;10.124;2023-12-20T14:17:15;9.82;;;2.30;;
71639;SDS011;60912;48.968;10.124;2023-12-20T14:19:40;9.47;;;1.80;;
71639;SDS011;60912;48.968;10.124;2023-12-20T14:22:06;7.23;;;1.47;;
71639;SDS011;60912;48.968;10.124;2023-12-20T14:24:31;5.47;;;1.53;;
71639;SDS011;60912;48.968;10.124;2023-12-20T14:26:57;6.03;;;1.33;;
71639;SDS011;60912;48.968;10.124;2023-12-20T14:29:23;9.15;;;2.20;;
71639;SDS011;60912;48.968;10.124;2023-12-20T14:31:49;5.67;;;1.80;;